sensor_id;sensor_type;location;lat;lon;timestamp;pressure;altitude;pressure_sealevel;temperature;humidity
23446;BME280;11895;48.738;9.320;2023-06-14T00:00:05;98242.44;;;17.02;79.23
23446;BME280;11895;48.738;9.320;2023-06-14T00:02:35;98250.25;;;17.06;76.42
23446;BME280;11895;48.738;9.320;2023-06-14T00:05:02;98252.00;;;17.07;78.08
23446;BME280;11895;48.738;9.320;2023-06-14T00:07:43;98247.13;;;17.11;74.84
23446;BME280;11895;48.738;9.320;2023-06-14T00:10:11;98253.84;;;16.95;82.41
23446;BME280;11895;48.738;9.320;2023-06-14T00:12:40;98250.75;;;17.00;73.26
23446;BME280;11895;48.738;9.320;2023-06-14T00:15:08;98251.03;;;16.97;77.72
23446;BME280;11895;48.738;9.320;2023-06-14T00:17:38;98243.81;;;16.96;72.85
23446;BME280;11895;48.738;9.320;2023-06-14T00:20:06;98246.91;;;16.91;82.88
23446;BME280;11895;48.738;9.320;2023-06-14T00:22:34;98244.56;;;16.87;73.25
23446;BME280;11895;48.738;9.320;2023-06-14T00:25:04;98240.25;;;16.84;70.29
23446;BME280;11895;48.738;9.320;2023-06-14T00:27:50;98246.94;;;16.80;62.60
23446;BME280;11895;48.738;9.320;2023-06-14T00:30:17;98244.59;;;16.76;47.17
23446;BME280;11895;48.738;9.320;2023-06-14T00:32:45;98247.78;;;16.81;44.35
23446;BME280;11895;48.738;9.320;2023-06-14T00:35:14;98243.84;;;16.74;87.88
23446;BME280;11895;48.738;9.320;2023-06-14T00:37:42;98248.28;;;16.75;78.06
23446;BME280;11895;48.738;9.320;2023-06-14T00:40:09;98244.59;;;16.76;84.34
23446;BME280;11895;48.738;9.320;2023-06-14T00:42:37;98246.38;;;16.41;89.62
23446;BME280;11895;48.738;9.320;2023-06-14T00:45:05;98247.75;;;16.47;63.06
23446;BME280;11895;48.738;9.320;2023-06-14T00:47:32;98245.88;;;16.36;91.17
23446;BME280;11895;48.738;9.320;2023-06-14T00:50:00;98250.06;;;16.29;91.40
23446;BME280;11895;48.738;9.320;2023-06-14T00:52:28;98253.91;;;16.15;91.49
23446;BME280;11895;48.738;9.320;2023-06-14T00:54:57;98255.34;;;16.08;89.60
23446;BME280;11895;48.738;9.320;2023-06-14T00:57:24;98256.84;;;16.12;92.49
23446;BME280;11895;48.738;9.320;2023-06-14T00:59:51;98257.34;;;16.17;59.04
23446;BME280;11895;48.738;9.320;2023-06-14T01:02:19;98266.75;;;16.25;73.79
23446;BME280;11895;48.738;9.320;2023-06-14T01:04:49;98253.31;;;16.34;65.00
23446;BME280;11895;48.738;9.320;2023-06-14T01:10:50;98263.41;;;16.21;84.57
23446;BME280;11895;48.738;9.320;2023-06-14T01:13:23;98265.22;;;16.09;96.63
23446;BME280;11895;48.738;9.320;2023-06-14T01:15:56;98258.91;;;16.09;80.10
23446;BME280;11895;48.738;9.320;2023-06-14T01:18:23;98262.78;;;16.17;72.09
23446;BME280;11895;48.738;9.320;2023-06-14T01:20:53;98257.69;;;16.13;64.52
23446;BME280;11895;48.738;9.320;2023-06-14T01:23:24;98265.69;;;16.03;95.45
23446;BME280;11895;48.738;9.320;2023-06-14T01:26:00;98268.19;;;16.06;92.99
23446;BME280;11895;48.738;9.320;2023-06-14T01:28:33;98262.25;;;16.01;65.24
23446;BME280;11895;48.738;9.320;2023-06-14T01:31:02;98260.91;;;16.07;69.95
23446;BME280;11895;48.738;9.320;2023-06-14T01:33:34;98263.47;;;15.97;60.78
23446;BME280;11895;48.738;9.320;2023-06-14T01:36:06;98263.19;;;15.89;94.46
23446;BME280;11895;48.738;9.320;2023-06-14T01:38:37;98259.22;;;15.82;68.06
23446;BME280;11895;48.738;9.320;2023-06-14T01:41:05;98256.84;;;15.77;90.89
23446;BME280;11895;48.738;9.320;2023-06-14T01:43:34;98266.78;;;15.65;100.00
23446;BME280;11895;48.738;9.320;2023-06-14T01:46:05;98263.72;;;15.70;99.98
23446;BME280;11895;48.738;9.320;2023-06-14T01:48:34;98264.28;;;15.62;100.00
23446;BME280;11895;48.738;9.320;2023-06-14T01:51:03;98261.06;;;15.57;98.90
23446;BME280;11895;48.738;9.320;2023-06-14T01:53:30;98254.84;;;15.55;100.00
23446;BME280;11895;48.738;9.320;2023-06-14T01:55:58;98259.66;;;15.52;97.02
23446;BME280;11895;48.738;9.320;2023-06-14T01:58:25;98264.22;;;15.51;74.61
23446;BME280;11895;48.738;9.320;2023-06-14T02:00:53;98266.06;;;15.51;92.73
23446;BME280;11895;48.738;9.320;2023-06-14T02:03:22;98272.94;;;15.43;57.61
23446;BME280;11895;48.738;9.320;2023-06-14T02:05:52;98269.63;;;15.51;86.08
23446;BME280;11895;48.738;9.320;2023-06-14T02:08:19;98274.03;;;15.41;100.00
23446;BME280;11895;48.738;9.320;2023-06-14T02:10:47;98271.25;;;15.30;100.00
23446;BME280;11895;48.738;9.320;2023-06-14T02:13:14;98273.75;;;15.33;87.42
23446;BME280;11895;48.738;9.320;2023-06-14T02:15:41;98278.88;;;15.25;94.49
23446;BME280;11895;48.738;9.320;2023-06-14T02:18:12;98278.22;;;15.21;100.00
23446;BME280;11895;48.738;9.320;2023-06-14T02:20:39;98268.50;;;15.19;89.44
23446;BME280;11895;48.738;9.320;2023-06-14T02:23:06;98268.50;;;15.19;98.74
23446;BME280;11895;48.738;9.320;2023-06-14T02:25:34;98264.34;;;15.13;66.53
23446;BME280;11895;48.738;9.320;2023-06-14T02:28:02;98268.03;;;15.25;84.21
23446;BME280;11895;48.738;9.320;2023-06-14T02:30:31;98267.38;;;15.21;85.72
23446;BME280;11895;48.738;9.320;2023-06-14T02:32:58;98266.97;;;15.14;48.62
23446;BME280;11895;48.738;9.320;2023-06-14T02:35:27;98274.34;;;15.12;90.32
23446;BME280;11895;48.738;9.320;2023-06-14T02:37:55;98273.28;;;15.02;100.00
23446;BME280;11895;48.738;9.320;2023-06-14T02:40:23;98269.38;;;15.06;100.00
23446;BME280;11895;48.738;9.320;2023-06-14T02:42:50;98267.88;;;15.02;78.82
23446;BME280;11895;48.738;9.320;2023-06-14T02:45:18;98264.41;;;15.00;95.77
23446;BME280;11895;48.738;9.320;2023-06-14T02:47:45;98269.19;;;14.97;77.69
23446;BME280;11895;48.738;9.320;2023-06-14T02:50:13;98267.47;;;14.83;100.00
23446;BME280;11895;48.738;9.320;2023-06-14T02:52:41;98267.72;;;14.80;100.00
23446;BME280;11895;48.738;9.320;2023-06-14T02:55:09;98268.59;;;14.80;100.00
23446;BME280;11895;48.738;9.320;2023-06-14T02:57:37;98260.56;;;14.66;74.19
23446;BME280;11895;48.738;9.320;2023-06-14T03:00:08;98268.81;;;14.52;100.00
23446;BME280;11895;48.738;9.320;2023-06-14T03:02:38;98271.41;;;14.53;97.96
23446;BME280;11895;48.738;9.320;2023-06-14T03:05:06;98268.50;;;14.56;83.81
23446;BME280;11895;48.738;9.320;2023-06-14T03:07:35;98268.72;;;14.53;100.00
23446;BME280;11895;48.738;9.320;2023-06-14T03:10:04;98273.16;;;14.54;100.00
23446;BME280;11895;48.738;9.320;2023-06-14T03:12:32;98271.41;;;14.53;80.25
23446;BME280;11895;48.738;9.320;2023-06-14T03:14:59;98280.09;;;14.71;68.12
23446;BME280;11895;48.738;9.320;2023-06-14T03:17:37;98282.00;;;14.82;98.09
23446;BME280;11895;48.738;9.320;2023-06-14T03:20:09;98277.78;;;14.90;71.75
23446;BME280;11895;48.738;9.320;2023-06-14T03:22:37;98285.72;;;14.68;100.00
23446;BME280;11895;48.738;9.320;2023-06-14T03:25:06;98281.16;;;14.69;100.00
23446;BME280;11895;48.738;9.320;2023-06-14T03:27:36;98288.97;;;14.73;100.00
23446;BME280;11895;48.738;9.320;2023-06-14T03:30:06;98294.34;;;14.35;100.00
23446;BME280;11895;48.738;9.320;2023-06-14T03:32:35;98286.31;;;14.21;100.00
23446;BME280;11895;48.738;9.320;2023-06-14T03:35:04;98307.50;;;14.41;100.00
23446;BME280;11895;48.738;9.320;2023-06-14T03:37:33;98304.53;;;14.19;100.00
23446;BME280;11895;48.738;9.320;2023-06-14T03:40:00;98300.97;;;14.44;100.00
23446;BME280;11895;48.738;9.320;2023-06-14T03:42:31;98302.41;;;14.36;100.00
23446;BME280;11895;48.738;9.320;2023-06-14T03:44:58;98302.59;;;14.33;100.00
23446;BME280;11895;48.738;9.320;2023-06-14T03:47:26;98304.31;;;14.09;100.00
23446;BME280;11895;48.738;9.320;2023-06-14T03:49:55;98309.09;;;14.31;92.71
23446;BME280;11895;48.738;9.320;2023-06-14T03:52:22;98311.69;;;14.45;100.00
23446;BME280;11895;48.738;9.320;2023-06-14T03:54:50;98318.44;;;14.27;100.00
23446;BME280;11895;48.738;9.320;2023-06-14T03:57:23;98322.31;;;14.35;100.00
23446;BME280;11895;48.738;9.320;2023-06-14T03:59:51;98328.38;;;14.13;100.00
23446;BME280;11895;48.738;9.320;2023-06-14T04:02:18;98323.84;;;14.27;100.00
23446;BME280;11895;48.738;9.320;2023-06-14T04:04:46;98326.47;;;14.41;100.00
23446;BME280;11895;48.738;9.320;2023-06-14T04:07:15;98329.97;;;14.56;100.00
23446;BME280;11895;48.738;9.320;2023-06-14T04:09:46;98326.47;;;14.41;100.00
23446;BME280;11895;48.738;9.320;2023-06-14T04:12:13;98329.91;;;14.18;100.00
23446;BME280;11895;48.738;9.320;2023-06-14T04:14:41;98331.66;;;14.31;100.00
23446;BME280;11895;48.738;9.320;2023-06-14T04:17:10;98331.66;;;14.44;100.00
23446;BME280;11895;48.738;9.320;2023-06-14T04:19:39;98336.03;;;14.59;98.64
23446;BME280;11895;48.738;9.320;2023-06-14T04:22:07;98346.88;;;14.59;100.00
23446;BME280;11895;48.738;9.320;2023-06-14T04:24:36;98341.25;;;14.62;84.80
23446;BME280;11895;48.738;9.320;2023-06-14T04:27:04;98340.50;;;14.60;100.00
23446;BME280;11895;48.738;9.320;2023-06-14T04:29:31;98346.00;;;14.59;100.00
23446;BME280;11895;48.738;9.320;2023-06-14T04:32:05;98347.31;;;14.53;100.00
23446;BME280;11895;48.738;9.320;2023-06-14T04:34:38;98352.06;;;14.50;100.00
23446;BME280;11895;48.738;9.320;2023-06-14T04:37:07;98347.09;;;14.56;100.00
23446;BME280;11895;48.738;9.320;2023-06-14T04:39:38;98352.63;;;14.68;100.00
23446;BME280;11895;48.738;9.320;2023-06-14T04:42:06;98352.09;;;14.62;100.00
23446;BME280;11895;48.738;9.320;2023-06-14T04:44:35;98344.50;;;14.80;74.55
23446;BME280;11895;48.738;9.320;2023-06-14T04:47:04;98350.34;;;14.87;100.00
23446;BME280;11895;48.738;9.320;2023-06-14T04:49:33;98351.44;;;14.84;100.00
23446;BME280;11895;48.738;9.320;2023-06-14T04:52:01;98354.22;;;15.08;70.84
23446;BME280;11895;48.738;9.320;2023-06-14T04:54:42;98363.38;;;14.95;100.00
23446;BME280;11895;48.738;9.320;2023-06-14T04:57:13;98367.03;;;15.19;100.00
23446;BME280;11895;48.738;9.320;2023-06-14T04:59:41;98368.09;;;15.29;100.00
23446;BME280;11895;48.738;9.320;2023-06-14T05:02:11;98366.09;;;15.44;76.75
23446;BME280;11895;48.738;9.320;2023-06-14T05:04:39;98370.78;;;15.79;85.98
23446;BME280;11895;48.738;9.320;2023-06-14T05:07:08;98373.66;;;15.64;100.00
23446;BME280;11895;48.738;9.320;2023-06-14T05:09:36;98376.94;;;15.81;74.90
23446;BME280;11895;48.738;9.320;2023-06-14T05:12:04;98379.06;;;16.01;66.49
23446;BME280;11895;48.738;9.320;2023-06-14T05:14:35;98386.72;;;16.07;99.79
23446;BME280;11895;48.738;9.320;2023-06-14T05:17:04;98382.22;;;15.95;100.00
23446;BME280;11895;48.738;9.320;2023-06-14T05:19:31;98369.75;;;16.16;69.82
23446;BME280;11895;48.738;9.320;2023-06-14T05:21:58;98386.38;;;16.36;100.00
23446;BME280;11895;48.738;9.320;2023-06-14T05:24:26;98384.78;;;16.44;100.00
23446;BME280;11895;48.738;9.320;2023-06-14T05:26:53;98383.13;;;16.31;100.00
23446;BME280;11895;48.738;9.320;2023-06-14T05:29:20;98379.72;;;16.40;100.00
23446;BME280;11895;48.738;9.320;2023-06-14T05:31:47;98386.19;;;16.61;96.51
23446;BME280;11895;48.738;9.320;2023-06-14T05:34:15;98378.56;;;16.78;98.70
23446;BME280;11895;48.738;9.320;2023-06-14T05:36:42;98384.47;;;16.60;100.00
23446;BME280;11895;48.738;9.320;2023-06-14T05:39:09;98388.09;;;16.37;100.00
23446;BME280;11895;48.738;9.320;2023-06-14T05:41:37;98394.25;;;16.39;100.00
23446;BME280;11895;48.738;9.320;2023-06-14T05:44:04;98391.63;;;16.61;100.00
23446;BME280;11895;48.738;9.320;2023-06-14T05:46:31;98390.00;;;16.83;98.51
23446;BME280;11895;48.738;9.320;2023-06-14T05:48:58;98382.59;;;17.07;97.05
23446;BME280;11895;48.738;9.320;2023-06-14T05:51:26;98377.91;;;16.98;91.49
23446;BME280;11895;48.738;9.320;2023-06-14T05:53:53;98381.47;;;16.99;100.00
23446;BME280;11895;48.738;9.320;2023-06-14T05:56:21;98380.75;;;17.19;97.38
23446;BME280;11895;48.738;9.320;2023-06-14T05:58:49;98378.88;;;17.31;97.47
23446;BME280;11895;48.738;9.320;2023-06-14T06:01:17;98376.63;;;17.58;93.50
23446;BME280;11895;48.738;9.320;2023-06-14T06:03:44;98377.66;;;17.46;98.88
23446;BME280;11895;48.738;9.320;2023-06-14T06:06:14;98383.47;;;17.75;88.35
23446;BME280;11895;48.738;9.320;2023-06-14T06:08:41;98375.88;;;17.67;94.30
23446;BME280;11895;48.738;9.320;2023-06-14T06:11:09;98381.56;;;17.64;96.08
23446;BME280;11895;48.738;9.320;2023-06-14T06:13:38;98383.03;;;17.91;87.15
23446;BME280;11895;48.738;9.320;2023-06-14T06:16:06;98385.09;;;17.98;92.72
23446;BME280;11895;48.738;9.320;2023-06-14T06:18:33;98383.56;;;18.17;91.88
23446;BME280;11895;48.738;9.320;2023-06-14T06:21:01;98388.28;;;18.15;89.49
23446;BME280;11895;48.738;9.320;2023-06-14T06:23:30;98388.69;;;18.42;81.48
23446;BME280;11895;48.738;9.320;2023-06-14T06:25:57;98387.94;;;18.72;82.83
23446;BME280;11895;48.738;9.320;2023-06-14T06:28:24;98392.25;;;18.96;77.00
23446;BME280;11895;48.738;9.320;2023-06-14T06:30:51;98396.63;;;19.08;59.17
23446;BME280;11895;48.738;9.320;2023-06-14T06:33:21;98387.31;;;19.41;65.04
23446;BME280;11895;48.738;9.320;2023-06-14T06:35:48;98383.81;;;19.60;51.53
23446;BME280;11895;48.738;9.320;2023-06-14T06:38:15;98381.44;;;19.86;58.50
23446;BME280;11895;48.738;9.320;2023-06-14T06:40:45;98383.75;;;19.91;64.86
23446;BME280;11895;48.738;9.320;2023-06-14T06:43:12;98384.09;;;20.07;57.10
23446;BME280;11895;48.738;9.320;2023-06-14T06:45:47;98390.97;;;20.21;61.04
23446;BME280;11895;48.738;9.320;2023-06-14T06:48:14;98393.44;;;20.14;60.76
23446;BME280;11895;48.738;9.320;2023-06-14T06:50:42;98398.28;;;20.01;59.57
23446;BME280;11895;48.738;9.320;2023-06-14T06:53:10;98397.59;;;19.99;62.14
23446;BME280;11895;48.738;9.320;2023-06-14T06:55:37;98409.44;;;20.28;59.78
23446;BME280;11895;48.738;9.320;2023-06-14T06:58:04;98407.31;;;20.51;61.64
23446;BME280;11895;48.738;9.320;2023-06-14T07:00:32;98406.88;;;20.75;55.97
23446;BME280;11895;48.738;9.320;2023-06-14T07:02:59;98412.34;;;20.66;55.09
23446;BME280;11895;48.738;9.320;2023-06-14T07:05:27;98414.50;;;20.62;56.75
23446;BME280;11895;48.738;9.320;2023-06-14T07:07:54;98407.16;;;20.72;55.21
23446;BME280;11895;48.738;9.320;2023-06-14T07:10:24;98411.16;;;20.88;54.72
23446;BME280;11895;48.738;9.320;2023-06-14T07:12:51;98416.19;;;21.02;52.20
23446;BME280;11895;48.738;9.320;2023-06-14T07:15:19;98414.56;;;21.28;51.99
23446;BME280;11895;48.738;9.320;2023-06-14T07:17:46;98414.06;;;21.52;50.77
23446;BME280;11895;48.738;9.320;2023-06-14T07:20:14;98414.72;;;21.64;47.85
23446;BME280;11895;48.738;9.320;2023-06-14T07:22:43;98421.25;;;21.91;46.83
23446;BME280;11895;48.738;9.320;2023-06-14T07:25:11;98423.06;;;22.00;45.87
23446;BME280;11895;48.738;9.320;2023-06-14T07:27:42;98420.09;;;22.21;45.78
23446;BME280;11895;48.738;9.320;2023-06-14T07:30:10;98432.19;;;22.46;45.41
23446;BME280;11895;48.738;9.320;2023-06-14T07:32:38;98424.88;;;22.09;46.61
23446;BME280;11895;48.738;9.320;2023-06-14T07:35:06;98430.06;;;22.40;46.26
23446;BME280;11895;48.738;9.320;2023-06-14T07:37:34;98437.53;;;22.65;45.32
23446;BME280;11895;48.738;9.320;2023-06-14T07:40:02;98433.75;;;22.84;44.25
23446;BME280;11895;48.738;9.320;2023-06-14T07:42:34;98440.75;;;22.96;44.05
23446;BME280;11895;48.738;9.320;2023-06-14T07:45:04;98430.22;;;23.09;43.57
23446;BME280;11895;48.738;9.320;2023-06-14T07:47:32;98440.34;;;23.35;42.74
23446;BME280;11895;48.738;9.320;2023-06-14T07:50:00;98433.38;;;23.41;43.25
23446;BME280;11895;48.738;9.320;2023-06-14T07:52:28;98441.41;;;23.60;42.53
23446;BME280;11895;48.738;9.320;2023-06-14T07:54:55;98445.97;;;23.51;42.78
23446;BME280;11895;48.738;9.320;2023-06-14T07:57:22;98439.25;;;23.72;42.62
23446;BME280;11895;48.738;9.320;2023-06-14T07:59:50;98436.00;;;23.76;42.28
23446;BME280;11895;48.738;9.320;2023-06-14T08:02:17;98436.75;;;23.87;42.51
23446;BME280;11895;48.738;9.320;2023-06-14T08:04:45;98437.09;;;23.92;41.99
23446;BME280;11895;48.738;9.320;2023-06-14T08:07:14;98434.41;;;24.00;41.67
23446;BME280;11895;48.738;9.320;2023-06-14T08:09:42;98427.06;;;24.17;41.43
23446;BME280;11895;48.738;9.320;2023-06-14T08:12:09;98438.41;;;24.22;41.62
23446;BME280;11895;48.738;9.320;2023-06-14T08:14:37;98440.22;;;24.39;40.27
23446;BME280;11895;48.738;9.320;2023-06-14T08:17:04;98436.66;;;24.47;41.03
23446;BME280;11895;48.738;9.320;2023-06-14T08:19:32;98439.41;;;24.55;40.52
23446;BME280;11895;48.738;9.320;2023-06-14T08:21:59;98438.38;;;24.64;40.07
23446;BME280;11895;48.738;9.320;2023-06-14T08:24:27;98442.19;;;24.87;40.15
23446;BME280;11895;48.738;9.320;2023-06-14T08:26:54;98458.06;;;24.85;39.55
23446;BME280;11895;48.738;9.320;2023-06-14T08:29:22;98443.94;;;25.05;39.39
23446;BME280;11895;48.738;9.320;2023-06-14T08:31:49;98450.66;;;25.19;39.26
23446;BME280;11895;48.738;9.320;2023-06-14T08:34:16;98441.03;;;25.23;38.82
23446;BME280;11895;48.738;9.320;2023-06-14T08:36:43;98442.91;;;25.30;39.16
23446;BME280;11895;48.738;9.320;2023-06-14T08:39:10;98447.06;;;25.26;38.25
23446;BME280;11895;48.738;9.320;2023-06-14T08:41:38;98453.09;;;25.30;38.31
23446;BME280;11895;48.738;9.320;2023-06-14T08:44:05;98460.63;;;25.52;38.09
23446;BME280;11895;48.738;9.320;2023-06-14T08:46:35;98459.75;;;25.52;37.93
23446;BME280;11895;48.738;9.320;2023-06-14T08:49:04;98453.72;;;25.64;38.00
23446;BME280;11895;48.738;9.320;2023-06-14T08:51:36;98451.88;;;25.41;38.17
23446;BME280;11895;48.738;9.320;2023-06-14T08:54:04;98460.59;;;25.69;37.64
23446;BME280;11895;48.738;9.320;2023-06-14T08:56:32;98458.03;;;25.75;36.87
23446;BME280;11895;48.738;9.320;2023-06-14T08:59:01;98449.75;;;25.75;36.61
23446;BME280;11895;48.738;9.320;2023-06-14T09:01:34;98448.50;;;25.86;36.61
23446;BME280;11895;48.738;9.320;2023-06-14T09:04:03;98452.84;;;25.64;36.68
23446;BME280;11895;48.738;9.320;2023-06-14T09:06:32;98446.63;;;25.70;37.27
23446;BME280;11895;48.738;9.320;2023-06-14T09:09:00;98451.50;;;26.15;36.60
23446;BME280;11895;48.738;9.320;2023-06-14T09:11:28;98446.81;;;26.24;35.33
23446;BME280;11895;48.738;9.320;2023-06-14T09:13:55;98446.50;;;25.47;36.73
23446;BME280;11895;48.738;9.320;2023-06-14T09:16:22;98445.63;;;25.55;36.76
23446;BME280;11895;48.738;9.320;2023-06-14T09:18:49;98441.81;;;25.80;36.53
23446;BME280;11895;48.738;9.320;2023-06-14T09:21:17;98448.34;;;25.87;35.46
23446;BME280;11895;48.738;9.320;2023-06-14T09:23:47;98450.28;;;26.18;35.88
23446;BME280;11895;48.738;9.320;2023-06-14T09:26:17;98450.94;;;26.28;34.96
23446;BME280;11895;48.738;9.320;2023-06-14T09:28:49;98439.53;;;26.31;34.39
23446;BME280;11895;48.738;9.320;2023-06-14T09:31:19;98440.72;;;26.37;34.63
23446;BME280;11895;48.738;9.320;2023-06-14T09:33:49;98450.56;;;26.31;34.29
23446;BME280;11895;48.738;9.320;2023-06-14T09:36:22;98439.16;;;26.34;34.14
23446;BME280;11895;48.738;9.320;2023-06-14T09:39:02;98443.44;;;26.76;34.30
23446;BME280;11895;48.738;9.320;2023-06-14T09:41:39;98451.19;;;27.04;32.06
23446;BME280;11895;48.738;9.320;2023-06-14T09:44:09;98453.16;;;27.18;31.89
23446;BME280;11895;48.738;9.320;2023-06-14T09:46:46;98456.69;;;27.27;30.85
23446;BME280;11895;48.738;9.320;2023-06-14T09:49:14;98445.06;;;27.31;32.24
23446;BME280;11895;48.738;9.320;2023-06-14T09:51:50;98449.75;;;27.83;30.72
23446;BME280;11895;48.738;9.320;2023-06-14T09:54:22;98454.06;;;28.01;30.46
23446;BME280;11895;48.738;9.320;2023-06-14T09:56:53;98452.16;;;28.16;29.91
23446;BME280;11895;48.738;9.320;2023-06-14T09:59:26;98447.75;;;28.07;29.79
23446;BME280;11895;48.738;9.320;2023-06-14T10:02:09;98440.97;;;27.80;31.07
23446;BME280;11895;48.738;9.320;2023-06-14T10:04:46;98440.75;;;27.66;31.60
23446;BME280;11895;48.738;9.320;2023-06-14T10:07:20;98454.19;;;27.55;32.17
23446;BME280;11895;48.738;9.320;2023-06-14T10:09:49;98459.34;;;27.58;31.96
23446;BME280;11895;48.738;9.320;2023-06-14T10:12:17;98447.53;;;27.64;32.03
23446;BME280;11895;48.738;9.320;2023-06-14T10:14:50;98445.38;;;27.74;31.32
23446;BME280;11895;48.738;9.320;2023-06-14T10:23:08;98445.06;;;27.99;30.51
23446;BME280;11895;48.738;9.320;2023-06-14T10:25:39;98443.94;;;27.78;31.28
23446;BME280;11895;48.738;9.320;2023-06-14T10:30:39;98430.69;;;27.51;31.31
23446;BME280;11895;48.738;9.320;2023-06-14T10:33:07;98439.50;;;27.69;30.55
23446;BME280;11895;48.738;9.320;2023-06-14T10:35:35;98426.84;;;27.75;30.39
23446;BME280;11895;48.738;9.320;2023-06-14T10:38:11;98443.66;;;27.73;29.86
23446;BME280;11895;48.738;9.320;2023-06-14T10:40:39;98429.63;;;28.19;29.25
23446;BME280;11895;48.738;9.320;2023-06-14T10:43:24;98439.56;;;28.64;28.38
23446;BME280;11895;48.738;9.320;2023-06-14T10:46:12;98438.63;;;29.15;27.50
23446;BME280;11895;48.738;9.320;2023-06-14T10:48:44;98442.50;;;29.42;28.17
23446;BME280;11895;48.738;9.320;2023-06-14T10:51:21;98434.47;;;29.54;27.67
23446;BME280;11895;48.738;9.320;2023-06-14T10:53:51;98434.25;;;29.27;27.97
23446;BME280;11895;48.738;9.320;2023-06-14T10:56:30;98434.38;;;29.19;27.72
23446;BME280;11895;48.738;9.320;2023-06-14T10:58:58;98440.66;;;29.77;27.77
23446;BME280;11895;48.738;9.320;2023-06-14T11:04:50;98432.38;;;29.56;26.64
23446;BME280;11895;48.738;9.320;2023-06-14T11:08:02;98420.66;;;29.88;26.32
23446;BME280;11895;48.738;9.320;2023-06-14T11:10:45;98429.69;;;30.38;26.28
23446;BME280;11895;48.738;9.320;2023-06-14T11:13:12;98416.78;;;30.72;26.53
23446;BME280;11895;48.738;9.320;2023-06-14T11:15:45;98423.06;;;30.46;25.71
23446;BME280;11895;48.738;9.320;2023-06-14T11:18:15;98426.00;;;30.79;25.68
23446;BME280;11895;48.738;9.320;2023-06-14T11:20:46;98428.41;;;31.22;24.83
23446;BME280;11895;48.738;9.320;2023-06-14T11:23:14;98421.44;;;30.58;24.95
23446;BME280;11895;48.738;9.320;2023-06-14T11:25:42;98431.63;;;31.12;24.84
23446;BME280;11895;48.738;9.320;2023-06-14T11:28:09;98431.84;;;31.11;24.85
23446;BME280;11895;48.738;9.320;2023-06-14T11:30:36;98418.31;;;30.94;25.36
23446;BME280;11895;48.738;9.320;2023-06-14T11:33:03;98424.09;;;30.86;24.96
23446;BME280;11895;48.738;9.320;2023-06-14T11:35:31;98419.66;;;31.25;25.24
23446;BME280;11895;48.738;9.320;2023-06-14T11:37:58;98426.31;;;31.37;25.04
23446;BME280;11895;48.738;9.320;2023-06-14T11:40:26;98424.56;;;31.10;24.93
23446;BME280;11895;48.738;9.320;2023-06-14T11:43:02;98424.75;;;31.08;24.81
23446;BME280;11895;48.738;9.320;2023-06-14T11:45:30;98419.44;;;31.00;25.07
23446;BME280;11895;48.738;9.320;2023-06-14T11:47:59;98428.59;;;30.94;25.15
23446;BME280;11895;48.738;9.320;2023-06-14T11:50:27;98429.63;;;30.73;25.23
23446;BME280;11895;48.738;9.320;2023-06-14T11:52:56;98424.59;;;31.50;24.69
23446;BME280;11895;48.738;9.320;2023-06-14T11:55:27;98417.31;;;31.68;24.19
23446;BME280;11895;48.738;9.320;2023-06-14T11:57:54;98416.50;;;32.84;23.35
23446;BME280;11895;48.738;9.320;2023-06-14T12:00:25;98421.94;;;34.11;22.74
23446;BME280;11895;48.738;9.320;2023-06-14T12:02:57;98419.31;;;34.53;22.14
23446;BME280;11895;48.738;9.320;2023-06-14T12:05:26;98419.56;;;33.64;22.27
23446;BME280;11895;48.738;9.320;2023-06-14T12:08:01;98413.06;;;34.69;21.32
23446;BME280;11895;48.738;9.320;2023-06-14T12:10:29;98411.81;;;34.95;20.58
23446;BME280;11895;48.738;9.320;2023-06-14T12:12:58;98414.94;;;34.01;21.11
23446;BME280;11895;48.738;9.320;2023-06-14T12:15:29;98413.84;;;31.86;23.00
23446;BME280;11895;48.738;9.320;2023-06-14T12:17:58;98414.06;;;31.12;23.92
23446;BME280;11895;48.738;9.320;2023-06-14T12:20:29;98410.84;;;31.02;24.26
23446;BME280;11895;48.738;9.320;2023-06-14T12:23:03;98406.19;;;31.48;23.68
23446;BME280;11895;48.738;9.320;2023-06-14T12:25:33;98410.69;;;31.50;24.23
23446;BME280;11895;48.738;9.320;2023-06-14T12:28:08;98415.16;;;31.57;24.17
23446;BME280;11895;48.738;9.320;2023-06-14T12:30:37;98416.88;;;31.65;23.71
23446;BME280;11895;48.738;9.320;2023-06-14T12:33:05;98414.97;;;33.52;22.58
23446;BME280;11895;48.738;9.320;2023-06-14T12:35:34;98409.94;;;35.19;20.88
23446;BME280;11895;48.738;9.320;2023-06-14T12:38:01;98405.50;;;36.35;19.87
23446;BME280;11895;48.738;9.320;2023-06-14T12:40:30;98404.00;;;38.31;18.48
23446;BME280;11895;48.738;9.320;2023-06-14T12:42:58;98413.72;;;39.16;17.29
23446;BME280;11895;48.738;9.320;2023-06-14T12:45:25;98413.41;;;40.51;16.43
23446;BME280;11895;48.738;9.320;2023-06-14T12:47:53;98410.91;;;41.84;15.58
23446;BME280;11895;48.738;9.320;2023-06-14T12:50:21;98414.25;;;42.92;14.91
23446;BME280;11895;48.738;9.320;2023-06-14T12:52:53;98412.22;;;43.86;14.39
23446;BME280;11895;48.738;9.320;2023-06-14T12:55:20;98420.16;;;44.13;14.20
23446;BME280;11895;48.738;9.320;2023-06-14T12:57:48;98423.50;;;44.49;13.98
23446;BME280;11895;48.738;9.320;2023-06-14T13:00:17;98418.03;;;44.53;13.39
23446;BME280;11895;48.738;9.320;2023-06-14T13:02:45;98421.56;;;44.69;14.22
23446;BME280;11895;48.738;9.320;2023-06-14T13:05:13;98416.81;;;42.88;14.43
23446;BME280;11895;48.738;9.320;2023-06-14T13:07:41;98419.38;;;42.90;14.31
23446;BME280;11895;48.738;9.320;2023-06-14T13:10:09;98416.47;;;43.49;14.10
23446;BME280;11895;48.738;9.320;2023-06-14T13:12:37;98416.22;;;44.86;13.87
23446;BME280;11895;48.738;9.320;2023-06-14T13:15:05;98421.47;;;45.54;13.53
23446;BME280;11895;48.738;9.320;2023-06-14T13:17:35;98423.44;;;46.24;13.04
23446;BME280;11895;48.738;9.320;2023-06-14T13:20:09;98433.59;;;46.72;12.88
23446;BME280;11895;48.738;9.320;2023-06-14T13:22:37;98430.59;;;46.49;12.85